createdAt,value
2023-05-19T00:02:33.799Z,20.13
2023-05-19T00:05:19.496Z,20.17
2023-05-19T00:08:05.510Z,20.19
2023-05-19T00:10:51.090Z,20.18
2023-05-19T00:13:36.946Z,20.17
2023-05-19T00:16:24.099Z,20.17
2023-05-19T00:19:10.353Z,20.18
2023-05-19T00:21:56.232Z,20.17
2023-05-19T00:24:41.623Z,20.17
2023-05-19T00:27:26.862Z,20.14
2023-05-19T00:30:12.535Z,20.15
2023-05-19T00:32:58.121Z,20.15
2023-05-19T00:35:43.411Z,20.14
2023-05-19T00:38:29.294Z,20.14
2023-05-19T00:41:14.909Z,20.14
2023-05-19T00:44:00.344Z,20.13
2023-05-19T00:46:45.638Z,20.13
2023-05-19T00:49:30.997Z,20.13
2023-05-19T00:52:16.347Z,20.13
2023-05-19T00:55:01.761Z,20.12
2023-05-19T00:57:47.082Z,20.11
2023-05-19T01:00:32.744Z,20.12
2023-05-19T01:03:20.645Z,20.12
2023-05-19T01:06:07.391Z,20.11
2023-05-19T01:08:54.741Z,20.10
2023-05-19T01:11:40.385Z,20.10
2023-05-19T01:14:25.609Z,20.10
2023-05-19T01:17:24.334Z,20.09
2023-05-19T01:20:31.295Z,20.08
2023-05-19T01:23:23.881Z,20.08
2023-05-19T01:26:12.903Z,20.07
2023-05-19T01:29:38.397Z,20.08
2023-05-19T01:32:25.479Z,20.07
2023-05-19T01:35:15.079Z,20.04
2023-05-19T01:38:01.466Z,20.07
2023-05-19T01:40:49.540Z,20.05
2023-05-19T01:43:36.022Z,20.05
2023-05-19T01:46:22.208Z,20.05
2023-05-19T01:49:08.046Z,20.04
2023-05-19T01:51:53.542Z,20.05
2023-05-19T01:54:40.999Z,20.02
2023-05-19T01:57:56.489Z,20.02
2023-05-19T02:00:56.796Z,20.02
2023-05-19T02:04:03.537Z,20.01
2023-05-19T02:07:01.422Z,20.00
2023-05-19T02:10:21.714Z,20.01
2023-05-19T02:13:09.016Z,19.99
2023-05-19T02:15:58.945Z,20.00
2023-05-19T02:18:46.265Z,19.99
2023-05-19T02:21:31.672Z,19.99
2023-05-19T02:24:17.518Z,19.98
2023-05-19T02:27:02.812Z,19.97
2023-05-19T02:29:48.203Z,19.99
2023-05-19T02:32:33.461Z,19.99
2023-05-19T02:35:19.171Z,19.97
2023-05-19T02:38:04.416Z,19.96
2023-05-19T02:40:52.763Z,19.96
2023-05-19T02:43:38.485Z,19.96
2023-05-19T02:46:24.031Z,19.96
2023-05-19T02:49:10.018Z,19.95
2023-05-19T02:51:55.413Z,19.91
2023-05-19T02:54:40.870Z,19.90
2023-05-19T02:57:26.952Z,19.87
2023-05-19T03:00:12.948Z,19.86
2023-05-19T03:03:02.752Z,19.87
2023-05-19T03:05:48.596Z,19.86
2023-05-19T03:08:34.564Z,19.85
2023-05-19T03:11:19.863Z,19.85
2023-05-19T03:14:05.596Z,19.84
2023-05-19T03:16:51.456Z,19.83
2023-05-19T03:19:36.889Z,19.84
2023-05-19T03:22:22.432Z,19.83
2023-05-19T03:25:08.164Z,19.84
2023-05-19T03:27:53.973Z,19.83
2023-05-19T03:30:39.876Z,19.81
2023-05-19T03:33:32.764Z,19.81
2023-05-19T03:36:18.174Z,19.78
2023-05-19T03:39:03.738Z,19.79
2023-05-19T03:41:49.833Z,19.83
2023-05-19T03:44:35.100Z,19.82
2023-05-19T03:47:20.498Z,19.83
2023-05-19T03:50:06.510Z,19.83
2023-05-19T03:53:07.359Z,19.83
2023-05-19T03:56:00.691Z,19.81
2023-05-19T03:58:47.130Z,19.81
2023-05-19T04:01:33.808Z,19.82
2023-05-19T04:04:19.683Z,19.86
2023-05-19T04:07:05.138Z,19.89
2023-05-19T04:09:51.064Z,19.93
2023-05-19T04:12:36.748Z,19.96
2023-05-19T04:15:22.130Z,19.98
2023-05-19T04:18:07.450Z,20.03
2023-05-19T04:20:53.532Z,20.06
2023-05-19T04:23:38.841Z,20.06
2023-05-19T04:26:25.033Z,20.10
2023-05-19T04:29:10.742Z,20.12
2023-05-19T04:32:00.997Z,20.15
2023-05-19T04:34:47.223Z,20.16
2023-05-19T04:37:40.688Z,20.18
2023-05-19T04:40:27.736Z,20.21
2023-05-19T04:43:12.950Z,20.24
2023-05-19T04:45:58.814Z,20.28
2023-05-19T04:48:45.212Z,20.28
2023-05-19T04:51:31.551Z,20.28
2023-05-19T04:54:19.547Z,20.30
2023-05-19T04:57:07.570Z,20.30
2023-05-19T05:00:00.038Z,20.33
2023-05-19T05:02:51.843Z,20.33
2023-05-19T05:05:39.439Z,20.35
2023-05-19T05:08:25.409Z,20.35
2023-05-19T05:11:12.904Z,20.39
2023-05-19T05:14:00.892Z,20.40
2023-05-19T05:16:50.993Z,20.42
2023-05-19T05:19:41.436Z,20.44
2023-05-19T05:22:27.480Z,20.44
2023-05-19T05:25:13.814Z,20.45
2023-05-19T05:28:00.045Z,20.46
2023-05-19T05:30:46.760Z,20.47
2023-05-19T05:33:34.444Z,20.49
2023-05-19T05:36:21.416Z,20.51
2023-05-19T05:39:07.429Z,20.51
2023-05-19T05:41:53.743Z,20.51
2023-05-19T05:44:39.983Z,20.52
2023-05-19T05:47:26.894Z,20.52
2023-05-19T05:50:13.744Z,20.55
2023-05-19T05:53:01.983Z,20.58
2023-05-19T05:55:50.245Z,20.58
2023-05-19T05:58:38.205Z,20.56
2023-05-19T06:01:24.199Z,20.60
2023-05-19T06:04:10.479Z,20.60
2023-05-19T06:07:01.163Z,20.58
2023-05-19T06:09:50.514Z,20.58
2023-05-19T06:12:40.055Z,20.59
2023-05-19T06:15:25.920Z,20.62
2023-05-19T06:18:19.186Z,20.66
2023-05-19T06:21:10.251Z,20.67
2023-05-19T06:23:55.950Z,20.71
2023-05-19T06:26:41.483Z,20.73
2023-05-19T06:29:26.828Z,20.73
2023-05-19T06:32:14.445Z,20.73
2023-05-19T06:35:00.212Z,20.71
2023-05-19T06:37:45.977Z,20.72
2023-05-19T06:43:17.884Z,20.73
2023-05-19T06:46:14.557Z,20.72
2023-05-19T06:49:02.271Z,20.73
2023-05-19T06:51:52.037Z,20.75
2023-05-19T06:54:38.942Z,20.74
2023-05-19T06:57:24.353Z,20.75
2023-05-19T07:00:13.423Z,20.75
2023-05-19T07:03:02.801Z,20.74
2023-05-19T07:05:48.664Z,20.76
2023-05-19T07:08:35.244Z,20.75
2023-05-19T07:11:22.183Z,20.77
2023-05-19T07:14:08.112Z,20.81
2023-05-19T07:16:54.426Z,20.83
2023-05-19T07:19:41.121Z,20.83
2023-05-19T07:22:27.674Z,20.86
2023-05-19T07:25:16.752Z,20.86
2023-05-19T07:28:05.875Z,20.90
2023-05-19T07:30:52.012Z,20.91
2023-05-19T07:33:37.579Z,20.91
2023-05-19T07:36:23.313Z,20.93
2023-05-19T07:39:09.011Z,20.94
2023-05-19T07:41:55.942Z,20.93
2023-05-19T07:44:41.749Z,20.94
2023-05-19T07:47:27.562Z,20.92
2023-05-19T07:50:14.506Z,20.94
2023-05-19T07:52:59.671Z,20.96
2023-05-19T07:55:44.807Z,20.98
2023-05-19T07:58:30.116Z,21.00
2023-05-19T08:01:15.422Z,21.02
2023-05-19T08:04:00.856Z,21.02
2023-05-19T08:06:46.680Z,21.04
2023-05-19T08:09:32.026Z,21.09
2023-05-19T08:12:17.446Z,21.10
2023-05-19T08:15:03.321Z,21.10
2023-05-19T08:17:48.781Z,21.11
2023-05-19T08:20:34.831Z,21.14
2023-05-19T08:23:22.546Z,21.13
2023-05-19T08:26:08.136Z,21.16
2023-05-19T08:28:53.978Z,21.15
2023-05-19T08:31:39.229Z,21.17
2023-05-19T08:34:24.618Z,21.18
2023-05-19T08:37:11.031Z,21.17
2023-05-19T08:39:57.294Z,21.19
2023-05-19T08:42:43.152Z,21.17
2023-05-19T08:45:29.150Z,21.15
2023-05-19T08:48:16.800Z,21.16
2023-05-19T08:51:20.853Z,21.14
2023-05-19T08:54:15.850Z,21.15
2023-05-19T08:57:02.404Z,21.13
2023-05-19T08:59:49.081Z,21.10
2023-05-19T09:02:36.766Z,21.09
2023-05-19T09:05:23.263Z,21.09
2023-05-19T09:08:08.664Z,21.06
2023-05-19T09:10:53.747Z,21.01
2023-05-19T09:13:39.442Z,20.97
2023-05-19T09:16:27.657Z,20.92
2023-05-19T09:19:15.867Z,20.89
2023-05-19T09:22:04.929Z,20.91
2023-05-19T09:24:50.707Z,20.90
2023-05-19T09:27:36.150Z,20.91
2023-05-19T09:30:21.852Z,20.89
2023-05-19T09:33:09.942Z,20.88
2023-05-19T09:35:56.814Z,20.87
2023-05-19T09:38:42.742Z,20.87
2023-05-19T09:41:28.930Z,20.85
2023-05-19T09:44:29.460Z,20.83
2023-05-19T09:47:16.469Z,20.82
2023-05-19T09:50:01.789Z,20.81
2023-05-19T09:52:48.233Z,20.78
2023-05-19T09:55:34.873Z,20.74
2023-05-19T09:58:21.750Z,20.73
2023-05-19T10:01:08.584Z,20.70
2023-05-19T10:03:54.323Z,20.69
2023-05-19T10:06:40.546Z,20.65
2023-05-19T10:09:27.953Z,20.63
2023-05-19T10:12:13.737Z,20.62
2023-05-19T10:14:59.530Z,20.59
2023-05-19T10:17:45.748Z,20.59
2023-05-19T10:20:32.801Z,20.56
2023-05-19T10:23:18.839Z,20.59
2023-05-19T10:26:06.659Z,20.61
2023-05-19T10:28:52.233Z,20.64
2023-05-19T10:31:40.255Z,20.64
2023-05-19T10:34:44.032Z,20.64
2023-05-19T10:37:45.208Z,20.67
2023-05-19T10:40:36.879Z,20.65
2023-05-19T10:43:43.955Z,20.66
2023-05-19T10:46:30.401Z,20.67
2023-05-19T10:49:22.716Z,20.70
2023-05-19T10:52:26.149Z,20.73
2023-05-19T10:55:17.529Z,20.78
2023-05-19T10:58:02.921Z,20.80
2023-05-19T11:01:01.034Z,20.84
2023-05-19T11:03:59.451Z,20.83
2023-05-19T11:06:52.632Z,20.85
2023-05-19T11:09:41.096Z,20.87
2023-05-19T11:12:26.541Z,20.87
2023-05-19T11:15:14.006Z,20.89
2023-05-19T11:18:01.925Z,20.89
2023-05-19T11:20:58.602Z,20.91
2023-05-19T11:23:44.421Z,20.94
2023-05-19T11:26:46.382Z,20.96
2023-05-19T11:29:33.528Z,20.98
2023-05-19T11:32:21.768Z,20.99
2023-05-19T11:35:10.134Z,21.02
2023-05-19T11:37:56.448Z,21.02
2023-05-19T11:40:42.197Z,21.01
2023-05-19T11:43:27.718Z,21.00
2023-05-19T11:46:13.992Z,21.00
2023-05-19T11:48:59.549Z,20.99
2023-05-19T11:51:45.874Z,21.01
2023-05-19T11:54:33.695Z,21.02
2023-05-19T11:57:20.483Z,21.06
2023-05-19T12:00:08.077Z,21.08
2023-05-19T12:02:54.004Z,21.11
2023-05-19T12:05:48.742Z,21.17
2023-05-19T12:08:37.164Z,21.18
2023-05-19T12:11:23.932Z,21.19
2023-05-19T12:14:09.860Z,21.18
2023-05-19T12:16:55.455Z,21.20
2023-05-19T12:19:43.516Z,21.21
2023-05-19T12:22:30.000Z,21.22
2023-05-19T12:25:17.182Z,21.21
2023-05-19T12:28:05.764Z,21.23
2023-05-19T12:30:52.584Z,21.23
2023-05-19T12:33:38.222Z,21.25
2023-05-19T12:36:25.217Z,21.24
2023-05-19T12:39:11.811Z,21.26
2023-05-19T12:42:10.173Z,21.26
2023-05-19T12:44:57.309Z,21.28
2023-05-19T12:47:48.771Z,21.28
2023-05-19T12:50:34.890Z,21.28
2023-05-19T12:53:20.533Z,21.33
2023-05-19T12:56:14.099Z,21.35
2023-05-19T12:59:00.717Z,21.32
2023-05-19T13:01:46.446Z,21.33
2023-05-19T13:04:31.657Z,21.32
2023-05-19T13:07:16.950Z,21.39
2023-05-19T13:10:02.486Z,21.35
2023-05-19T13:12:47.716Z,21.39
2023-05-19T13:15:35.726Z,21.40
2023-05-19T13:18:21.309Z,21.41
2023-05-19T13:21:06.952Z,21.44
2023-05-19T13:23:53.398Z,21.44
2023-05-19T13:26:39.735Z,21.47
2023-05-19T13:29:25.638Z,21.47
2023-05-19T13:32:10.871Z,21.45
2023-05-19T13:34:56.390Z,21.46
2023-05-19T13:37:42.780Z,21.45
2023-05-19T13:40:28.720Z,21.45
2023-05-19T13:43:14.245Z,21.46
2023-05-19T13:45:59.784Z,21.46
2023-05-19T13:48:45.424Z,21.48
2023-05-19T13:51:31.348Z,21.52
2023-05-19T13:54:19.617Z,21.48
2023-05-19T13:57:06.280Z,21.48
2023-05-19T14:00:01.677Z,21.50
2023-05-19T14:02:57.448Z,21.47
2023-05-19T14:05:42.720Z,21.47
2023-05-19T14:08:28.184Z,21.47
2023-05-19T14:11:21.696Z,21.47
2023-05-19T14:14:08.833Z,21.50
2023-05-19T14:16:56.445Z,21.51
2023-05-19T14:19:42.112Z,21.54
2023-05-19T14:22:27.789Z,21.54
2023-05-19T14:25:13.059Z,21.56
2023-05-19T14:27:58.426Z,21.56
2023-05-19T14:30:43.893Z,21.55
2023-05-19T14:33:34.742Z,21.54
2023-05-19T14:36:21.152Z,21.56
2023-05-19T14:39:06.618Z,21.52
2023-05-19T14:41:52.983Z,21.50
2023-05-19T14:44:38.594Z,21.54
2023-05-19T14:47:26.167Z,21.53
2023-05-19T14:50:12.933Z,21.54
2023-05-19T14:52:58.390Z,21.53
2023-05-19T14:55:44.307Z,21.51
2023-05-19T14:58:29.733Z,21.50
2023-05-19T15:01:15.117Z,21.51
2023-05-19T15:04:00.326Z,21.53
2023-05-19T15:06:48.209Z,21.56
2023-05-19T15:09:37.931Z,21.54
2023-05-19T15:12:23.240Z,21.54
2023-05-19T15:15:09.652Z,21.57
2023-05-19T15:17:55.437Z,21.56
2023-05-19T15:20:40.632Z,21.54
2023-05-19T15:23:25.950Z,21.54
2023-05-19T15:26:11.057Z,21.56
2023-05-19T15:28:56.424Z,21.56
2023-05-19T15:31:41.886Z,21.53
2023-05-19T15:34:27.377Z,21.52
2023-05-19T15:37:12.753Z,21.50
2023-05-19T15:39:58.265Z,21.49
2023-05-19T15:42:43.906Z,21.49
2023-05-19T15:45:29.035Z,21.48
2023-05-19T15:48:14.534Z,21.47
2023-05-19T15:51:00.051Z,21.45
2023-05-19T15:53:45.313Z,21.44
2023-05-19T15:56:30.655Z,21.40
2023-05-19T15:59:15.901Z,21.39
2023-05-19T16:02:01.497Z,21.38
2023-05-19T16:04:46.725Z,21.38
2023-05-19T16:07:31.925Z,21.36
2023-05-19T16:10:17.255Z,21.36
2023-05-19T16:13:02.579Z,21.34
2023-05-19T16:15:48.670Z,21.34
2023-05-19T16:18:34.168Z,21.34
2023-05-19T16:21:19.537Z,21.32
2023-05-19T16:24:06.429Z,21.33
2023-05-19T16:26:53.607Z,21.31
2023-05-19T16:29:39.363Z,21.31
2023-05-19T16:32:25.214Z,21.31
2023-05-19T16:35:11.392Z,21.31
2023-05-19T16:37:57.450Z,21.30
2023-05-19T16:40:45.642Z,21.30
2023-05-19T16:43:33.689Z,21.28
2023-05-19T16:46:21.693Z,21.27
2023-05-19T16:49:07.595Z,21.27
2023-05-19T16:51:54.182Z,21.26
2023-05-19T16:54:40.809Z,21.26
2023-05-19T16:57:26.767Z,21.25
2023-05-19T17:00:13.090Z,21.23
2023-05-19T17:02:58.329Z,21.21
2023-05-19T17:05:45.594Z,21.21
2023-05-19T17:08:33.189Z,21.19
2023-05-19T17:11:19.384Z,21.18
2023-05-19T17:14:09.701Z,21.18
2023-05-19T17:16:55.987Z,21.15
2023-05-19T17:19:41.879Z,21.13
2023-05-19T17:22:29.489Z,21.10
2023-05-19T17:25:15.815Z,21.08
2023-05-19T17:28:01.550Z,21.06
2023-05-19T17:30:47.375Z,21.03
2023-05-19T17:33:33.329Z,21.06
2023-05-19T17:36:19.282Z,21.03
2023-05-19T17:39:05.433Z,20.99
2023-05-19T17:41:52.607Z,20.99
2023-05-19T17:44:38.200Z,20.99
2023-05-19T17:47:23.958Z,20.98
2023-05-19T17:50:09.578Z,20.97
2023-05-19T17:52:56.244Z,21.01
2023-05-19T17:55:44.164Z,21.00
2023-05-19T17:58:29.781Z,21.04
2023-05-19T18:01:17.082Z,21.04
2023-05-19T18:04:03.800Z,21.03
2023-05-19T18:06:52.084Z,21.03
2023-05-19T18:09:38.420Z,21.02
2023-05-19T18:12:23.626Z,21.01
2023-05-19T18:15:09.081Z,21.01
2023-05-19T18:17:54.717Z,21.00
2023-05-19T18:20:41.190Z,21.01
2023-05-19T18:23:26.828Z,21.01
2023-05-19T18:26:15.678Z,21.01
2023-05-19T18:29:04.821Z,21.01
2023-05-19T18:31:50.287Z,20.99
2023-05-19T18:34:35.646Z,20.98
2023-05-19T18:37:20.933Z,20.97
2023-05-19T18:40:07.585Z,20.97
2023-05-19T18:42:53.061Z,20.95
2023-05-19T18:45:38.481Z,20.93
2023-05-19T18:48:25.684Z,20.90
2023-05-19T18:51:11.350Z,20.87
2023-05-19T18:53:56.781Z,20.89
2023-05-19T18:56:42.398Z,20.89
2023-05-19T18:59:27.893Z,20.89
2023-05-19T19:02:13.189Z,20.90
2023-05-19T19:04:58.823Z,20.90
2023-05-19T19:07:44.776Z,20.93
2023-05-19T19:10:33.268Z,20.96
2023-05-19T19:13:19.121Z,20.98
2023-05-19T19:16:04.560Z,20.99
2023-05-19T19:18:50.116Z,21.00
2023-05-19T19:21:35.729Z,21.01
2023-05-19T19:24:21.420Z,21.01
2023-05-19T19:27:06.931Z,21.01
2023-05-19T19:29:52.242Z,21.00
2023-05-19T19:32:37.799Z,21.00
2023-05-19T19:35:23.109Z,21.01
2023-05-19T19:38:08.706Z,21.01
2023-05-19T19:40:54.100Z,21.00
2023-05-19T19:43:39.170Z,21.02
2023-05-19T19:46:24.437Z,21.00
2023-05-19T19:49:09.755Z,20.98
2023-05-19T19:51:55.080Z,20.97
2023-05-19T19:54:40.211Z,20.99
2023-05-19T19:57:26.902Z,20.99
2023-05-19T20:00:12.996Z,21.00
2023-05-19T20:05:46.678Z,21.06
2023-05-19T20:08:31.849Z,21.08
2023-05-19T20:11:17.228Z,21.11
2023-05-19T20:14:02.932Z,21.11
2023-05-19T20:16:48.140Z,21.12
2023-05-19T20:19:33.705Z,21.12
2023-05-19T20:22:19.466Z,21.12
2023-05-19T20:25:05.040Z,21.11
2023-05-19T20:27:50.615Z,21.11
2023-05-19T20:30:35.949Z,21.12
2023-05-19T20:33:21.298Z,21.11
2023-05-19T20:36:07.328Z,21.12
2023-05-19T20:38:53.053Z,21.11
2023-05-19T20:41:38.622Z,21.09
2023-05-19T20:44:23.826Z,21.08
2023-05-19T20:47:09.002Z,21.09
2023-05-19T20:49:54.264Z,21.09
2023-05-19T20:52:39.541Z,21.10
2023-05-19T20:55:50.694Z,21.08
2023-05-19T20:58:37.104Z,21.08
2023-05-19T21:01:22.803Z,21.08
2023-05-19T21:04:08.282Z,21.08
2023-05-19T21:06:53.624Z,21.09
2023-05-19T21:09:38.979Z,21.10
2023-05-19T21:12:25.291Z,21.10
2023-05-19T21:15:11.122Z,21.13
2023-05-19T21:17:56.416Z,21.12
2023-05-19T21:20:41.667Z,21.12
2023-05-19T21:23:26.792Z,21.12
2023-05-19T21:26:12.042Z,21.11
2023-05-19T21:28:57.365Z,21.10
2023-05-19T21:31:42.572Z,21.12
2023-05-19T21:34:27.881Z,21.13
2023-05-19T21:37:13.219Z,21.12
2023-05-19T21:39:58.563Z,21.13
2023-05-19T21:42:43.738Z,21.13
2023-05-19T21:45:29.204Z,21.12
2023-05-19T21:48:14.492Z,21.13
2023-05-19T21:50:59.641Z,21.13
2023-05-19T21:53:45.274Z,21.13
2023-05-19T21:56:30.681Z,21.13
2023-05-19T21:59:15.798Z,21.13
2023-05-19T22:02:00.959Z,21.13
2023-05-19T22:04:46.353Z,21.12
2023-05-19T22:07:31.675Z,21.12
2023-05-19T22:10:17.413Z,21.12
2023-05-19T22:13:02.968Z,21.11
2023-05-19T22:15:48.197Z,21.08
2023-05-19T22:18:33.907Z,21.09
2023-05-19T22:21:19.340Z,21.09
2023-05-19T22:24:04.641Z,21.08
2023-05-19T22:26:49.983Z,21.11
2023-05-19T22:29:38.433Z,21.11
2023-05-19T22:32:24.196Z,21.07
2023-05-19T22:35:10.871Z,21.02
2023-05-19T22:37:56.094Z,20.97
2023-05-19T22:40:41.554Z,20.92
2023-05-19T22:43:26.791Z,20.89
2023-05-19T22:46:12.099Z,20.87
2023-05-19T22:48:57.405Z,20.85
2023-05-19T22:51:42.515Z,20.80
2023-05-19T22:54:27.874Z,20.77
2023-05-19T22:57:13.134Z,20.75
2023-05-19T22:59:58.320Z,20.72
2023-05-19T23:02:43.537Z,20.69
2023-05-19T23:05:28.795Z,20.67
2023-05-19T23:08:14.032Z,20.65
2023-05-19T23:11:00.898Z,20.61
2023-05-19T23:13:46.068Z,20.59
2023-05-19T23:16:31.298Z,20.56
2023-05-19T23:19:17.134Z,20.54
2023-05-19T23:22:02.770Z,20.51
2023-05-19T23:24:48.043Z,20.49
2023-05-19T23:27:36.658Z,20.46
2023-05-19T23:30:22.096Z,20.44
2023-05-19T23:33:07.300Z,20.44
2023-05-19T23:35:52.543Z,20.38
2023-05-19T23:38:37.863Z,20.38
2023-05-19T23:41:23.037Z,20.38
2023-05-19T23:44:08.571Z,20.37
2023-05-19T23:46:54.049Z,20.35
2023-05-19T23:49:39.311Z,20.34
2023-05-19T23:52:24.639Z,20.32
2023-05-19T23:55:12.662Z,20.31
2023-05-19T23:57:58.082Z,20.28
